Time;durP1;ratioP1;P1;durP2;ratioP2;P2;SDS_P1;SDS_P2;PMS_P1;PMS_P2;Temp;Humidity;BMP_temperature;BMP_pressure;BME280_temperature;BME280_humidity;BME280_pressure;Samples;Min_cycle;Max_cycle;Signal;HPM_P1;HPM_P2
2020/12/20 00:00:39;;;;;;;2.27;2.07;;;6.40;98.00;;;;;;5031729;28;21022;-68
2020/12/20 00:03:05;;;;;;;2.30;1.87;;;6.30;98.00;;;;;;5033007;28;20520;-67
2020/12/20 00:05:32;;;;;;;1.20;1.10;;;6.40;98.00;;;;;;5031721;28;20499;-68
2020/12/20 00:07:59;;;;;;;1.40;1.20;;;6.40;98.00;;;;;;5033160;28;20463;-68
2020/12/20 00:10:27;;;;;;;1.30;1.20;;;6.30;98.00;;;;;;5031552;28;20467;-68
2020/12/20 00:12:55;;;;;;;4.70;1.63;;;6.20;98.00;;;;;;5032942;28;20470;-67
2020/12/20 00:15:23;;;;;;;1.40;1.20;;;6.30;98.00;;;;;;5031610;28;21021;-67
2020/12/20 00:17:50;;;;;;;1.30;1.20;;;6.30;98.00;;;;;;5032857;28;20560;-68
2020/12/20 00:20:18;;;;;;;2.30;1.50;;;6.30;98.00;;;;;;5031520;28;20474;-66
2020/12/20 00:22:44;;;;;;;2.10;1.57;;;6.30;98.00;;;;;;5032629;28;20463;-67
2020/12/20 00:25:12;;;;;;;1.43;1.33;;;6.20;98.00;;;;;;5031461;28;20783;-67
2020/12/20 00:27:40;;;;;;;1.20;1.10;;;6.20;98.00;;;;;;5032750;28;20820;-67
2020/12/20 00:30:14;;;;;;;1.80;1.53;;;6.10;98.00;;;;;;5031424;28;20490;-68
2020/12/20 00:32:40;;;;;;;3.00;1.80;;;6.20;98.00;;;;;;5031287;28;20798;-66
2020/12/20 00:35:07;;;;;;;2.90;2.13;;;6.20;98.00;;;;;;5031424;28;20920;-67
2020/12/20 00:37:34;;;;;;;1.50;1.50;;;6.20;98.00;;;;;;5032327;28;20464;-66
2020/12/20 00:40:03;;;;;;;1.30;1.20;;;6.20;98.00;;;;;;5031329;28;20825;-66
2020/12/20 00:42:30;;;;;;;1.40;1.20;;;6.40;98.00;;;;;;5031417;28;20461;-66
2020/12/20 00:44:59;;;;;;;1.50;1.20;;;6.40;98.00;;;;;;5029942;28;20463;-67
2020/12/20 00:47:26;;;;;;;1.20;1.03;;;6.50;98.00;;;;;;5032336;28;20507;-68
2020/12/20 00:49:53;;;;;;;2.07;1.93;;;6.40;98.00;;;;;;5030699;28;20462;-68
2020/12/20 00:52:19;;;;;;;1.30;1.20;;;6.40;98.00;;;;;;5032360;28;20459;-67
2020/12/20 00:54:46;;;;;;;1.20;1.00;;;6.40;98.00;;;;;;5030810;28;20505;-67
2020/12/20 00:57:12;;;;;;;1.20;1.10;;;6.30;98.00;;;;;;5032287;28;20510;-67
2020/12/20 00:59:39;;;;;;;1.53;1.33;;;6.30;98.00;;;;;;5030843;28;20457;-68
2020/12/20 01:02:06;;;;;;;5.93;1.57;;;6.30;98.00;;;;;;5030676;28;20461;-68
2020/12/20 01:04:33;;;;;;;1.73;1.20;;;6.20;98.00;;;;;;5030493;28;20954;-68
2020/12/20 01:07:00;;;;;;;4.17;2.37;;;6.30;98.00;;;;;;5031993;28;20483;-66
2020/12/20 01:09:27;;;;;;;1.20;1.00;;;6.30;98.00;;;;;;5030555;28;20466;-66
2020/12/20 01:11:57;;;;;;;1.20;1.03;;;6.40;98.00;;;;;;5031711;28;20535;-66
2020/12/20 01:14:23;;;;;;;1.57;1.27;;;6.30;98.00;;;;;;5030204;28;20572;-68
2020/12/20 01:16:50;;;;;;;3.20;1.53;;;6.40;98.00;;;;;;5031666;28;20465;-66
2020/12/20 01:19:16;;;;;;;1.57;1.30;;;6.40;98.00;;;;;;5029749;28;20497;-67
2020/12/20 01:21:44;;;;;;;1.67;1.40;;;6.40;98.00;;;;;;5031693;28;20970;-66
2020/12/20 01:24:10;;;;;;;2.43;1.63;;;6.40;98.00;;;;;;5030144;28;20480;-66
2020/12/20 01:26:37;;;;;;;1.87;1.27;;;6.40;98.00;;;;;;5031632;28;20465;-67
2020/12/20 01:29:03;;;;;;;1.20;1.10;;;6.60;98.00;;;;;;5030013;28;20527;-66
2020/12/20 01:31:30;;;;;;;3.50;1.77;;;6.60;98.00;;;;;;5031589;28;20952;-66
2020/12/20 01:33:56;;;;;;;1.40;1.23;;;6.60;98.00;;;;;;5029801;28;20534;-67
2020/12/20 01:36:22;;;;;;;1.20;1.10;;;6.40;98.00;;;;;;5031360;28;20523;-67
2020/12/20 01:38:50;;;;;;;1.83;1.37;;;6.30;98.00;;;;;;5029809;28;20476;-67
2020/12/20 01:41:16;;;;;;;2.13;1.30;;;6.30;98.00;;;;;;5031281;28;20460;-66
2020/12/20 01:43:45;;;;;;;1.20;0.93;;;6.30;98.00;;;;;;5030938;28;20879;-66
2020/12/20 01:46:13;;;;;;;1.20;1.07;;;6.40;98.00;;;;;;5031320;28;20529;-67
2020/12/20 01:48:40;;;;;;;3.23;1.50;;;6.40;98.00;;;;;;5030883;28;20458;-66
2020/12/20 01:51:07;;;;;;;1.30;1.10;;;6.50;98.00;;;;;;5029953;28;20584;-67
2020/12/20 01:53:35;;;;;;;1.20;1.00;;;6.40;98.00;;;;;;5030940;28;20518;-66
2020/12/20 01:56:04;;;;;;;3.83;1.53;;;6.50;98.00;;;;;;5029708;28;20461;-67
2020/12/20 01:58:31;;;;;;;1.30;1.30;;;6.50;98.00;;;;;;5031082;28;20794;-67
2020/12/20 02:00:58;;;;;;;1.20;1.20;;;6.40;98.00;;;;;;5029654;28;20462;-66
2020/12/20 02:03:25;;;;;;;1.43;1.30;;;6.40;98.00;;;;;;5031181;28;20557;-67
2020/12/20 02:05:51;;;;;;;1.47;1.47;;;6.30;98.00;;;;;;5029842;28;20509;-66
2020/12/20 02:08:18;;;;;;;1.30;1.20;;;6.40;98.00;;;;;;5031081;28;20569;-68
2020/12/20 02:11:15;;;;;;;1.40;1.33;;;6.30;98.00;;;;;;5029520;28;20960;-67
2020/12/20 02:13:43;;;;;;;1.50;1.30;;;6.30;98.00;;;;;;5030860;28;21058;-68
2020/12/20 02:16:11;;;;;;;1.43;1.30;;;6.30;98.00;;;;;;5029569;28;20490;-66
2020/12/20 02:18:38;;;;;;;1.20;1.00;;;6.20;98.00;;;;;;5030709;28;20460;-67
2020/12/20 02:21:14;;;;;;;1.50;1.30;;;6.20;98.00;;;;;;5029462;28;20460;-66
2020/12/20 02:23:42;;;;;;;2.90;1.87;;;6.30;98.00;;;;;;5029322;28;20462;-66
2020/12/20 02:26:09;;;;;;;1.20;1.20;;;6.30;98.00;;;;;;5029305;28;20453;-66
2020/12/20 02:28:36;;;;;;;1.47;1.20;;;6.20;98.00;;;;;;5030570;28;20470;-66
2020/12/20 02:31:02;;;;;;;1.40;1.40;;;6.20;98.00;;;;;;5027187;28;20456;-66
2020/12/20 02:33:30;;;;;;;1.20;1.00;;;6.20;98.00;;;;;;5030406;28;21002;-67
2020/12/20 02:35:56;;;;;;;1.60;1.37;;;6.20;98.00;;;;;;5028947;28;21018;-67
2020/12/20 02:38:24;;;;;;;1.20;1.17;;;6.20;98.00;;;;;;5030624;28;20466;-66
2020/12/20 02:40:50;;;;;;;1.70;1.30;;;6.20;98.00;;;;;;5029147;28;20832;-66
2020/12/20 02:43:17;;;;;;;1.20;1.00;;;6.20;98.00;;;;;;5030578;28;20979;-66
2020/12/20 02:45:44;;;;;;;1.83;1.57;;;6.20;98.00;;;;;;5027710;28;20459;-68
2020/12/20 02:48:10;;;;;;;1.20;1.10;;;6.30;98.00;;;;;;5030643;28;20476;-66
2020/12/20 02:50:38;;;;;;;1.47;1.43;;;6.30;98.00;;;;;;5029133;28;20600;-66
2020/12/20 02:53:05;;;;;;;2.70;1.80;;;6.40;98.00;;;;;;5030471;28;20458;-68
2020/12/20 02:55:32;;;;;;;1.47;1.33;;;6.40;98.00;;;;;;5028870;28;20484;-66
2020/12/20 02:57:59;;;;;;;1.20;1.00;;;6.50;98.00;;;;;;5029152;28;20962;-66
2020/12/20 03:00:25;;;;;;;3.50;1.83;;;6.50;98.00;;;;;;5029224;28;20463;-67
2020/12/20 03:02:52;;;;;;;1.20;1.00;;;6.60;98.00;;;;;;5029064;28;20464;-66
2020/12/20 03:05:19;;;;;;;1.20;1.00;;;6.50;98.00;;;;;;5028931;28;21108;-67
2020/12/20 03:07:45;;;;;;;1.20;1.00;;;6.40;98.00;;;;;;5028402;28;20546;-67
2020/12/20 03:10:14;;;;;;;1.20;1.00;;;6.40;98.00;;;;;;5028984;28;20796;-66
2020/12/20 03:12:41;;;;;;;1.20;1.00;;;6.40;98.00;;;;;;5030063;28;20458;-67
2020/12/20 03:15:11;;;;;;;1.20;1.00;;;6.50;98.00;;;;;;5028904;28;20610;-66
2020/12/20 03:17:37;;;;;;;1.40;1.40;;;6.50;98.00;;;;;;5028953;28;20466;-67
2020/12/20 03:20:04;;;;;;;1.73;1.40;;;6.40;98.00;;;;;;5028983;28;20983;-68
2020/12/20 03:22:31;;;;;;;1.43;1.37;;;6.40;98.00;;;;;;5030094;28;20470;-67
2020/12/20 03:25:00;;;;;;;1.20;1.10;;;6.40;98.00;;;;;;5028970;28;20956;-67
2020/12/20 03:27:27;;;;;;;2.00;1.20;;;6.40;98.00;;;;;;5030202;28;20461;-67
2020/12/20 03:29:55;;;;;;;2.03;1.50;;;6.40;98.00;;;;;;5028980;28;20457;-68
2020/12/20 03:32:21;;;;;;;1.20;1.00;;;6.60;98.00;;;;;;5030465;28;20882;-68
2020/12/20 03:34:48;;;;;;;1.40;1.30;;;6.50;98.00;;;;;;5028953;28;20489;-67
2020/12/20 03:37:15;;;;;;;1.20;1.00;;;6.40;98.00;;;;;;5028941;28;20461;-66
2020/12/20 03:39:42;;;;;;;2.27;1.37;;;6.30;98.00;;;;;;5029141;28;20843;-68
2020/12/20 03:42:09;;;;;;;1.20;1.00;;;6.40;98.00;;;;;;5030514;28;20473;-68
2020/12/20 03:44:35;;;;;;;1.30;1.20;;;6.40;98.00;;;;;;5032586;28;20990;-66
2020/12/20 03:47:02;;;;;;;2.60;1.43;;;6.30;98.00;;;;;;5033627;28;20802;-66
2020/12/20 03:49:29;;;;;;;1.80;1.20;;;6.40;98.00;;;;;;5032069;28;20456;-66
2020/12/20 03:51:56;;;;;;;1.57;1.47;;;6.30;98.00;;;;;;5033364;28;20522;-67
2020/12/20 03:54:22;;;;;;;1.30;1.23;;;6.30;98.00;;;;;;5032107;28;20503;-67
2020/12/20 03:56:50;;;;;;;1.20;1.10;;;6.30;98.00;;;;;;5033270;28;20459;-67
2020/12/20 03:59:17;;;;;;;1.50;1.10;;;6.30;98.00;;;;;;5031924;28;20943;-66
2020/12/20 04:01:43;;;;;;;2.17;1.87;;;6.20;98.00;;;;;;5033165;28;20461;-66
2020/12/20 04:04:10;;;;;;;1.27;1.13;;;6.30;98.00;;;;;;5031899;28;20472;-66
2020/12/20 04:06:37;;;;;;;1.80;1.73;;;6.30;98.00;;;;;;5032987;28;20473;-67
2020/12/20 04:09:04;;;;;;;1.30;1.30;;;6.30;98.00;;;;;;5031839;28;20487;-67
2020/12/20 04:11:30;;;;;;;1.20;1.10;;;6.20;98.00;;;;;;5033013;28;20452;-66
2020/12/20 04:13:57;;;;;;;1.20;1.00;;;6.10;98.00;;;;;;5032595;28;20458;-67
2020/12/20 04:16:23;;;;;;;1.70;1.37;;;6.10;98.00;;;;;;5031866;28;20489;-67
2020/12/20 04:18:50;;;;;;;1.20;0.90;;;6.10;98.00;;;;;;5033004;28;20466;-68
2020/12/20 04:21:20;;;;;;;1.20;1.03;;;6.10;98.00;;;;;;5031946;28;20462;-67
2020/12/20 04:23:47;;;;;;;1.60;1.20;;;6.10;98.00;;;;;;5033077;28;20534;-66
2020/12/20 04:26:14;;;;;;;1.67;1.50;;;6.20;98.00;;;;;;5031466;28;20469;-66
2020/12/20 04:28:41;;;;;;;1.20;1.00;;;6.20;98.00;;;;;;5032834;28;20450;-67
2020/12/20 04:31:07;;;;;;;1.30;1.10;;;6.20;98.00;;;;;;5032388;28;20496;-66
2020/12/20 04:33:34;;;;;;;1.83;1.80;;;6.20;98.00;;;;;;5033362;28;20523;-66
2020/12/20 04:36:00;;;;;;;1.20;1.00;;;6.20;98.00;;;;;;5032116;28;20496;-66
2020/12/20 04:38:28;;;;;;;1.20;1.10;;;6.10;98.00;;;;;;5015791;28;20450;-67
2020/12/20 04:40:54;;;;;;;1.70;1.10;;;6.10;98.00;;;;;;5031435;28;20458;-66
2020/12/20 04:43:22;;;;;;;3.83;1.50;;;6.20;98.00;;;;;;5032551;28;20473;-66
2020/12/20 04:45:53;;;;;;;1.20;1.10;;;6.20;98.00;;;;;;5031146;28;20504;-66
2020/12/20 04:48:20;;;;;;;1.20;1.00;;;6.20;98.00;;;;;;5031218;28;20454;-68
2020/12/20 04:50:47;;;;;;;1.20;1.10;;;6.20;98.00;;;;;;5031181;28;20461;-66
2020/12/20 04:53:14;;;;;;;1.37;1.23;;;6.20;98.00;;;;;;5032438;28;20492;-66
2020/12/20 04:55:44;;;;;;;2.13;1.37;;;6.10;98.00;;;;;;5030135;28;20489;-66
2020/12/20 04:58:12;;;;;;;1.60;1.43;;;6.20;98.00;;;;;;5032398;28;20469;-66
2020/12/20 05:00:38;;;;;;;1.50;1.20;;;6.20;98.00;;;;;;5030953;28;20878;-67
2020/12/20 05:03:05;;;;;;;2.43;1.50;;;6.30;98.00;;;;;;5032505;28;20492;-67
2020/12/20 05:05:31;;;;;;;1.30;1.00;;;6.20;98.00;;;;;;5030748;28;20463;-67
2020/12/20 05:07:58;;;;;;;1.20;1.00;;;6.20;98.00;;;;;;5032172;28;20467;-66
2020/12/20 05:10:38;;;;;;;1.20;1.00;;;6.20;98.00;;;;;;5030468;28;20458;-67
2020/12/20 05:13:06;;;;;;;1.30;1.30;;;6.20;98.00;;;;;;5031992;28;20498;-66
2020/12/20 05:15:34;;;;;;;1.57;1.30;;;6.10;98.00;;;;;;5030426;28;20486;-67
2020/12/20 05:18:04;;;;;;;1.30;1.10;;;6.20;98.00;;;;;;5031893;28;20958;-67
2020/12/20 05:20:40;;;;;;;1.87;1.37;;;6.10;98.00;;;;;;5030615;28;20884;-67
2020/12/20 05:23:07;;;;;;;2.03;1.83;;;6.00;98.00;;;;;;5030491;28;20765;-67
2020/12/20 05:25:34;;;;;;;2.70;1.60;;;6.00;98.00;;;;;;5030316;28;21043;-68
2020/12/20 05:28:08;;;;;;;1.57;1.30;;;6.00;98.00;;;;;;5031710;28;20966;-67
2020/12/20 05:30:35;;;;;;;1.67;1.23;;;6.00;98.00;;;;;;5030223;28;20571;-66
2020/12/20 05:33:03;;;;;;;1.20;1.00;;;6.00;98.00;;;;;;5031804;28;20969;-65
2020/12/20 05:35:29;;;;;;;1.70;1.30;;;6.10;98.00;;;;;;5030114;28;21040;-67
2020/12/20 05:37:57;;;;;;;1.20;0.90;;;6.10;98.00;;;;;;5031533;28;20511;-68
2020/12/20 05:40:26;;;;;;;1.20;1.10;;;6.10;98.00;;;;;;5029971;28;20467;-68
2020/12/20 05:42:58;;;;;;;2.07;1.37;;;6.00;98.00;;;;;;5031371;28;21040;-67
2020/12/20 05:45:28;;;;;;;1.20;1.00;;;6.00;98.00;;;;;;5029958;28;20457;-67
2020/12/20 05:47:55;;;;;;;3.67;2.23;;;6.10;98.00;;;;;;5031275;28;20516;-66
2020/12/20 05:50:27;;;;;;;1.20;0.90;;;6.00;98.00;;;;;;5029684;28;20515;-68
2020/12/20 05:53:02;;;;;;;2.17;1.10;;;5.90;98.00;;;;;;5031014;28;20463;-66
2020/12/20 05:55:39;;;;;;;1.20;1.10;;;5.90;98.00;;;;;;5029616;28;20486;-67
2020/12/20 05:58:10;;;;;;;1.20;1.00;;;5.90;98.00;;;;;;5031167;28;20465;-68
2020/12/20 06:00:40;;;;;;;1.30;1.17;;;5.80;98.00;;;;;;5029459;28;20467;-66
2020/12/20 06:03:07;;;;;;;1.20;1.10;;;5.80;98.00;;;;;;5031169;28;20464;-67
2020/12/20 06:05:38;;;;;;;1.37;1.30;;;5.90;98.00;;;;;;5029598;28;20453;-67
2020/12/20 06:08:07;;;;;;;1.30;1.27;;;5.80;98.00;;;;;;5030772;28;20464;-67
2020/12/20 06:10:37;;;;;;;1.20;1.00;;;5.70;98.00;;;;;;5029523;28;20814;-66
2020/12/20 06:13:05;;;;;;;1.20;0.90;;;5.70;98.00;;;;;;5029734;28;21005;-67
2020/12/20 06:15:35;;;;;;;1.50;1.17;;;5.70;98.00;;;;;;5029226;28;20494;-67
2020/12/20 06:18:08;;;;;;;1.37;1.30;;;5.60;98.00;;;;;;5030825;28;20455;-67
2020/12/20 06:20:49;;;;;;;2.43;1.30;;;5.70;98.00;;;;;;5029463;28;20500;-67
2020/12/20 06:23:19;;;;;;;1.20;0.90;;;5.80;98.00;;;;;;5027099;28;20891;-67
2020/12/20 06:25:47;;;;;;;1.20;1.10;;;5.80;98.00;;;;;;5029161;28;20470;-66
2020/12/20 06:28:20;;;;;;;1.80;1.27;;;5.90;98.00;;;;;;5030677;28;20525;-67
2020/12/20 06:30:47;;;;;;;1.40;1.30;;;5.90;98.00;;;;;;5029352;28;20463;-67
2020/12/20 06:33:25;;;;;;;2.07;1.20;;;5.80;98.00;;;;;;5030743;28;20473;-66
2020/12/20 06:35:53;;;;;;;1.20;0.93;;;5.80;98.00;;;;;;5029292;28;20517;-69
2020/12/20 06:38:23;;;;;;;1.20;1.00;;;5.80;98.00;;;;;;5030700;28;20457;-68
2020/12/20 06:40:50;;;;;;;1.20;1.10;;;5.70;98.00;;;;;;5029295;28;20463;-67
2020/12/20 06:43:29;;;;;;;1.73;1.60;;;5.70;98.00;;;;;;5030871;28;20458;-66
2020/12/20 06:45:56;;;;;;;1.20;1.00;;;5.70;98.00;;;;;;5028048;28;20459;-67
2020/12/20 06:48:32;;;;;;;1.20;1.00;;;5.80;98.00;;;;;;5030362;28;20459;-67
2020/12/20 06:51:00;;;;;;;1.30;1.10;;;5.90;98.00;;;;;;5029178;28;20522;-68
2020/12/20 06:53:52;;;;;;;1.60;1.30;;;5.80;98.00;;;;;;5029359;28;20464;-68
2020/12/20 06:56:22;;;;;;;1.20;1.00;;;5.80;98.00;;;;;;5028826;28;20573;-67
2020/12/20 06:58:50;;;;;;;1.50;1.40;;;5.70;98.00;;;;;;5030507;28;20475;-67
2020/12/20 07:01:34;;;;;;;1.60;1.30;;;5.70;98.00;;;;;;5028835;28;20465;-66
2020/12/20 07:04:02;;;;;;;1.40;1.20;;;5.70;98.00;;;;;;5029821;28;20552;-66
2020/12/20 07:06:29;;;;;;;1.77;1.30;;;5.70;98.00;;;;;;5028848;28;20490;-67
2020/12/20 07:09:03;;;;;;;1.60;1.40;;;5.70;98.00;;;;;;5029258;28;20454;-67
2020/12/20 07:11:30;;;;;;;1.50;1.27;;;5.70;98.00;;;;;;5028837;28;20461;-68
2020/12/20 07:13:57;;;;;;;1.20;1.10;;;5.70;98.00;;;;;;5030343;28;20955;-66
2020/12/20 07:16:37;;;;;;;2.07;1.70;;;5.70;98.00;;;;;;5027458;28;20613;-67
2020/12/20 07:19:06;;;;;;;1.20;1.00;;;5.70;98.00;;;;;;5033307;28;20460;-67
2020/12/20 07:21:55;;;;;;;1.50;1.23;;;5.70;98.00;;;;;;5032645;28;21030;-65
2020/12/20 07:24:24;;;;;;;1.20;1.10;;;5.70;98.00;;;;;;5032518;28;20815;-67
2020/12/20 07:26:53;;;;;;;1.37;1.20;;;5.70;98.00;;;;;;5033837;28;20497;-67
2020/12/20 07:29:21;;;;;;;1.47;1.20;;;5.70;98.00;;;;;;5032923;28;20519;-66
2020/12/20 07:31:52;;;;;;;2.97;1.47;;;5.90;98.00;;;;;;5033582;28;20465;-68
2020/12/20 07:34:34;;;;;;;2.60;1.40;;;5.90;98.00;;;;;;5033661;28;20465;-67
2020/12/20 07:37:01;;;;;;;1.30;1.17;;;5.80;98.00;;;;;;5033958;28;20500;-66
2020/12/20 07:39:28;;;;;;;1.80;1.30;;;5.80;98.00;;;;;;5032358;28;20463;-68
2020/12/20 07:41:58;;;;;;;1.60;1.50;;;5.80;98.00;;;;;;5033899;28;20452;-68
2020/12/20 07:44:26;;;;;;;3.17;1.53;;;5.90;98.00;;;;;;5031925;28;20514;-68
2020/12/20 07:46:53;;;;;;;3.13;1.47;;;5.90;98.00;;;;;;5032286;28;21084;-67
2020/12/20 07:49:20;;;;;;;1.40;1.20;;;5.90;98.00;;;;;;5033300;28;20851;-66
2020/12/20 07:51:48;;;;;;;1.20;1.20;;;5.90;98.00;;;;;;5031446;28;20953;-66
2020/12/20 07:54:15;;;;;;;2.50;2.10;;;5.90;98.00;;;;;;5033209;28;20481;-67
2020/12/20 07:56:45;;;;;;;1.30;1.07;;;5.90;98.00;;;;;;5031499;28;21085;-66
2020/12/20 07:59:13;;;;;;;2.30;1.73;;;6.00;98.00;;;;;;5032043;28;20523;-66
2020/12/20 08:01:41;;;;;;;2.33;1.30;;;6.00;98.00;;;;;;5031802;28;20479;-66
2020/12/20 08:04:09;;;;;;;1.50;1.20;;;6.00;98.00;;;;;;5033265;28;20459;-67
2020/12/20 08:06:38;;;;;;;1.30;1.10;;;6.10;98.00;;;;;;5031382;28;20457;-67
2020/12/20 08:09:07;;;;;;;1.70;1.30;;;6.10;98.00;;;;;;5033274;28;20464;-66
2020/12/20 08:11:34;;;;;;;2.63;1.30;;;6.20;98.00;;;;;;5031505;28;20460;-68
2020/12/20 08:14:03;;;;;;;2.53;1.30;;;6.10;98.00;;;;;;5032953;28;20516;-67
2020/12/20 08:16:31;;;;;;;1.20;1.00;;;6.10;98.00;;;;;;5031498;28;20511;-67
2020/12/20 08:19:00;;;;;;;1.20;1.10;;;6.20;98.00;;;;;;5033124;28;20468;-67
2020/12/20 08:21:47;;;;;;;1.50;1.40;;;6.30;98.00;;;;;;5031470;28;20597;-66
2020/12/20 08:24:15;;;;;;;1.30;1.20;;;6.30;98.00;;;;;;5025607;28;20468;-68
2020/12/20 08:26:43;;;;;;;1.20;1.00;;;6.30;98.00;;;;;;5031621;28;20833;-66
2020/12/20 08:29:14;;;;;;;1.93;1.50;;;6.50;98.00;;;;;;5031915;28;20490;-66
2020/12/20 08:31:41;;;;;;;1.30;1.23;;;6.60;98.00;;;;;;5031575;28;20867;-67
2020/12/20 08:34:17;;;;;;;2.17;1.57;;;6.60;98.00;;;;;;5031566;28;20463;-66
2020/12/20 08:36:45;;;;;;;1.50;1.37;;;6.90;98.00;;;;;;5030326;28;20533;-66
2020/12/20 08:39:15;;;;;;;1.20;0.90;;;7.00;98.00;;;;;;5032488;28;20464;-66
2020/12/20 08:41:42;;;;;;;1.20;1.10;;;7.00;98.00;;;;;;5030958;28;20457;-66
2020/12/20 08:44:12;;;;;;;1.73;1.40;;;7.00;98.00;;;;;;5031056;28;20600;-67
2020/12/20 08:46:40;;;;;;;1.20;1.10;;;7.10;98.00;;;;;;5030400;28;20469;-66
2020/12/20 08:49:14;;;;;;;1.33;1.30;;;7.10;98.00;;;;;;5031937;28;20465;-66
2020/12/20 08:51:42;;;;;;;1.47;1.30;;;7.10;98.00;;;;;;5030451;28;20466;-66
2020/12/20 08:54:11;;;;;;;1.20;1.20;;;7.20;98.00;;;;;;5031650;28;20462;-66
2020/12/20 08:56:54;;;;;;;1.20;1.10;;;7.20;98.00;;;;;;5030509;28;20872;-66
2020/12/20 08:59:38;;;;;;;3.03;1.60;;;7.30;98.00;;;;;;5031737;28;20462;-67
2020/12/20 09:02:06;;;;;;;1.27;1.17;;;7.40;98.00;;;;;;5031619;28;20949;-66
2020/12/20 09:04:35;;;;;;;1.77;1.20;;;7.50;98.00;;;;;;5029912;28;20458;-66
2020/12/20 09:07:05;;;;;;;1.20;1.00;;;7.60;98.00;;;;;;5031635;28;20469;-66
2020/12/20 09:09:32;;;;;;;1.30;1.17;;;7.60;98.00;;;;;;5030078;28;20507;-66
2020/12/20 09:12:19;;;;;;;2.40;1.30;;;7.70;98.00;;;;;;5031566;28;20473;-66
2020/12/20 09:15:00;;;;;;;1.73;1.40;;;7.80;98.00;;;;;;5029941;28;20493;-66
2020/12/20 09:17:34;;;;;;;1.70;1.67;;;7.80;98.00;;;;;;5031375;28;20472;-66
2020/12/20 09:20:04;;;;;;;1.70;1.50;;;7.80;98.00;;;;;;5030088;28;20465;-67
2020/12/20 09:22:49;;;;;;;3.30;1.70;;;7.90;98.00;;;;;;5031246;28;20496;-67
2020/12/20 09:25:17;;;;;;;2.43;1.30;;;7.80;98.00;;;;;;5029764;28;20818;-67
2020/12/20 09:27:59;;;;;;;2.33;1.77;;;7.80;98.00;;;;;;5031284;28;20460;-66
2020/12/20 09:30:38;;;;;;;3.87;1.40;;;8.00;98.00;;;;;;5029789;28;20967;-68
2020/12/20 09:33:25;;;;;;;5.37;2.10;;;8.00;98.00;;;;;;5031175;28;20522;-67
2020/12/20 09:35:59;;;;;;;1.50;1.37;;;7.90;98.00;;;;;;5029505;28;20529;-68
2020/12/20 09:38:28;;;;;;;1.20;1.13;;;8.00;98.00;;;;;;5031089;28;20647;-69
2020/12/20 09:41:03;;;;;;;1.87;1.70;;;8.00;98.00;;;;;;5029346;28;20485;-67
2020/12/20 09:43:31;;;;;;;1.33;1.27;;;8.00;98.00;;;;;;5030956;28;20463;-67
2020/12/20 09:46:01;;;;;;;2.33;1.83;;;8.90;98.00;;;;;;5029565;28;20461;-66
2020/12/20 09:48:29;;;;;;;1.30;1.27;;;10.30;98.00;;;;;;5031122;28;20473;-67
2020/12/20 09:50:56;;;;;;;1.87;1.57;;;11.80;98.00;;;;;;5029789;28;20463;-68
2020/12/20 09:53:22;;;;;;;1.63;1.40;;;12.40;96.80;;;;;;5030864;28;20463;-68
2020/12/20 09:55:50;;;;;;;1.53;1.40;;;12.30;95.70;;;;;;5029212;28;20491;-66
2020/12/20 09:58:17;;;;;;;2.00;1.60;;;11.90;95.50;;;;;;5030775;28;20493;-65
2020/12/20 10:00:46;;;;;;;1.70;1.40;;;11.40;97.30;;;;;;5029227;28;20462;-67
2020/12/20 10:03:13;;;;;;;2.60;2.43;;;11.10;98.00;;;;;;5030112;28;20462;-67
2020/12/20 10:05:42;;;;;;;1.30;1.20;;;10.80;98.00;;;;;;5029169;28;20455;-68
2020/12/20 10:08:09;;;;;;;2.47;1.97;;;10.50;98.00;;;;;;5030377;28;20461;-65
2020/12/20 10:10:38;;;;;;;1.30;1.27;;;10.50;98.00;;;;;;5029105;28;20525;-66
2020/12/20 10:13:05;;;;;;;2.33;1.50;;;10.40;98.00;;;;;;5030658;28;20469;-66
2020/12/20 10:15:33;;;;;;;1.93;1.23;;;10.30;98.00;;;;;;5028954;28;20487;-66
2020/12/20 10:18:01;;;;;;;2.37;1.70;;;10.20;98.00;;;;;;5029287;28;20465;-66
2020/12/20 10:20:31;;;;;;;2.03;1.57;;;9.90;98.00;;;;;;5026431;28;20506;-67
2020/12/20 10:22:58;;;;;;;1.40;1.30;;;9.70;98.00;;;;;;5009525;28;20502;-67
2020/12/20 10:25:27;;;;;;;2.03;1.50;;;9.60;98.00;;;;;;5008599;28;20540;-68
2020/12/20 10:27:54;;;;;;;1.87;1.77;;;9.70;98.00;;;;;;5010714;28;20461;-66
2020/12/20 10:30:24;;;;;;;1.20;1.17;;;9.60;98.00;;;;;;5008935;28;20460;-68
2020/12/20 10:32:50;;;;;;;1.80;1.43;;;9.50;98.00;;;;;;5011367;28;20467;-67
2020/12/20 10:35:18;;;;;;;1.73;1.30;;;9.50;98.00;;;;;;4995374;28;20503;-67
2020/12/20 10:37:45;;;;;;;1.20;1.10;;;9.60;98.00;;;;;;4991019;28;20507;-66
2020/12/20 10:40:12;;;;;;;2.50;1.97;;;9.60;98.00;;;;;;4989394;28;20474;-67
2020/12/20 10:42:38;;;;;;;1.30;1.30;;;9.60;98.00;;;;;;4991980;28;20456;-66
2020/12/20 10:45:06;;;;;;;1.30;1.20;;;9.50;98.00;;;;;;4990416;28;20511;-66
2020/12/20 10:47:32;;;;;;;1.80;1.40;;;9.40;98.00;;;;;;4991680;28;20468;-66
2020/12/20 10:49:59;;;;;;;3.07;2.20;;;9.40;98.00;;;;;;4989991;28;20463;-66
2020/12/20 10:52:28;;;;;;;2.47;1.83;;;9.40;98.00;;;;;;4991748;28;20563;-68
2020/12/20 10:54:55;;;;;;;1.50;1.30;;;9.40;98.00;;;;;;4992947;28;21028;-68
2020/12/20 10:57:23;;;;;;;1.60;1.30;;;9.50;98.00;;;;;;4995131;28;20460;-66
2020/12/20 10:59:49;;;;;;;1.73;1.33;;;9.50;98.00;;;;;;4991920;28;20470;-65
2020/12/20 11:02:17;;;;;;;3.10;2.27;;;9.50;98.00;;;;;;4994835;28;20481;-67
2020/12/20 11:04:45;;;;;;;3.20;1.77;;;9.50;98.00;;;;;;4993035;28;20835;-66
2020/12/20 11:07:12;;;;;;;1.93;1.50;;;9.40;98.00;;;;;;4994682;28;20584;-68
2020/12/20 11:09:40;;;;;;;1.30;1.30;;;9.40;98.00;;;;;;4992729;28;20463;-66
2020/12/20 11:12:07;;;;;;;1.90;1.37;;;9.40;98.00;;;;;;4994008;28;20512;-67
2020/12/20 11:14:34;;;;;;;1.53;1.50;;;9.40;98.00;;;;;;4994167;28;20823;-67
2020/12/20 11:17:02;;;;;;;4.17;1.90;;;9.50;98.00;;;;;;4993150;28;20473;-66
2020/12/20 11:19:41;;;;;;;1.30;1.10;;;9.50;98.00;;;;;;4993548;28;20473;-66
2020/12/20 11:22:09;;;;;;;1.30;1.13;;;9.60;98.00;;;;;;4993894;28;20474;-67
2020/12/20 11:24:37;;;;;;;1.30;1.20;;;9.60;98.00;;;;;;4994007;28;20806;-66
2020/12/20 11:27:05;;;;;;;4.40;1.33;;;9.80;98.00;;;;;;4993280;28;20468;-65
2020/12/20 11:29:35;;;;;;;1.53;1.33;;;9.90;98.00;;;;;;4994455;28;20475;-67
2020/12/20 11:32:01;;;;;;;1.47;1.33;;;9.90;98.00;;;;;;4993024;28;20475;-67
2020/12/20 11:34:38;;;;;;;1.40;1.20;;;9.80;98.00;;;;;;4994174;28;20474;-66
2020/12/20 11:37:18;;;;;;;2.17;1.30;;;9.80;98.00;;;;;;4993380;28;20471;-66
2020/12/20 11:39:53;;;;;;;1.20;1.00;;;9.90;98.00;;;;;;4992004;28;20524;-67
2020/12/20 11:42:21;;;;;;;1.67;1.20;;;10.10;98.00;;;;;;4994628;28;20814;-67
2020/12/20 11:44:48;;;;;;;1.40;1.10;;;10.10;98.00;;;;;;4992460;28;20469;-66
2020/12/20 11:47:15;;;;;;;1.90;1.63;;;9.90;98.00;;;;;;4994180;28;20464;-67
2020/12/20 11:49:42;;;;;;;1.40;1.30;;;9.90;98.00;;;;;;4993953;28;20470;-66
2020/12/20 11:52:09;;;;;;;3.10;1.73;;;9.90;98.00;;;;;;4993117;28;20490;-67
2020/12/20 11:54:35;;;;;;;1.93;1.40;;;9.90;98.00;;;;;;4993686;28;20483;-66
2020/12/20 11:57:02;;;;;;;1.20;1.10;;;10.00;98.00;;;;;;4992016;28;20471;-66
2020/12/20 11:59:31;;;;;;;1.50;1.40;;;10.10;98.00;;;;;;4993710;28;20520;-66
2020/12/20 12:02:00;;;;;;;1.83;1.30;;;10.30;98.00;;;;;;4991908;28;20466;-69
2020/12/20 12:04:27;;;;;;;2.03;1.23;;;10.40;98.00;;;;;;4992988;28;20561;-67
2020/12/20 12:06:53;;;;;;;2.23;2.10;;;10.60;98.00;;;;;;4991921;28;20470;-66
2020/12/20 12:09:21;;;;;;;1.70;1.60;;;10.80;98.00;;;;;;4993539;28;20461;-68
2020/12/20 12:11:51;;;;;;;1.57;1.30;;;10.90;98.00;;;;;;4991862;28;20456;-66
2020/12/20 12:14:18;;;;;;;2.27;1.80;;;10.70;98.00;;;;;;4993461;28;20467;-66
2020/12/20 12:16:45;;;;;;;1.73;1.70;;;10.70;98.00;;;;;;4991671;28;20485;-67
2020/12/20 12:19:11;;;;;;;1.73;1.40;;;10.60;98.00;;;;;;4993215;28;20464;-68
2020/12/20 12:21:39;;;;;;;2.07;1.80;;;10.70;98.00;;;;;;4991956;28;20474;-67
2020/12/20 12:24:05;;;;;;;2.00;1.57;;;10.80;98.00;;;;;;4992910;28;20472;-67
2020/12/20 12:26:32;;;;;;;1.73;1.67;;;10.90;98.00;;;;;;4991522;28;20519;-66
2020/12/20 12:28:59;;;;;;;1.20;1.10;;;10.90;98.00;;;;;;4993360;28;20462;-67
2020/12/20 12:31:25;;;;;;;5.87;2.77;;;10.80;98.00;;;;;;4991064;28;20964;-67
2020/12/20 12:33:53;;;;;;;2.43;1.70;;;10.90;98.00;;;;;;4992897;28;20462;-67
2020/12/20 12:36:19;;;;;;;1.73;1.73;;;10.70;98.00;;;;;;4991162;28;20499;-68
2020/12/20 12:38:46;;;;;;;1.97;1.57;;;10.70;98.00;;;;;;4993186;28;20468;-66
2020/12/20 12:41:12;;;;;;;2.90;1.67;;;10.80;98.00;;;;;;4990950;28;20517;-67
2020/12/20 12:43:39;;;;;;;2.63;1.83;;;10.70;98.00;;;;;;4992372;28;20482;-67
2020/12/20 12:46:05;;;;;;;1.57;1.47;;;10.80;98.00;;;;;;4990977;28;20451;-67
2020/12/20 12:48:31;;;;;;;2.70;2.23;;;10.90;98.00;;;;;;4992647;28;20470;-66
2020/12/20 12:50:59;;;;;;;1.30;1.23;;;11.00;98.00;;;;;;4991014;28;20988;-66
2020/12/20 12:53:26;;;;;;;2.17;1.60;;;11.00;98.00;;;;;;4993063;28;20468;-67
2020/12/20 12:56:25;;;;;;;3.60;2.03;;;11.70;98.00;;;;;;4990114;28;20520;-68
2020/12/20 12:58:52;;;;;;;2.27;1.63;;;12.00;98.00;;;;;;4992800;28;20464;-67
2020/12/20 13:01:18;;;;;;;3.13;1.50;;;11.90;98.00;;;;;;4990666;28;20472;-67
2020/12/20 13:03:45;;;;;;;1.70;1.60;;;11.80;98.00;;;;;;4992704;28;20974;-67